sensor_id;sensor_type;location;lat;lon;timestamp;P1;durP1;ratioP1;P2;durP2;ratioP2
13208;SDS011;6669;42.678;23.332;2023-06-24T00:00:10;6.50;;;5.82;;
13208;SDS011;6669;42.678;23.332;2023-06-24T00:02:39;6.50;;;5.32;;
13208;SDS011;6669;42.678;23.332;2023-06-24T00:05:11;6.32;;;5.18;;
13208;SDS011;6669;42.678;23.332;2023-06-24T00:07:39;6.10;;;5.50;;
13208;SDS011;6669;42.678;23.332;2023-06-24T00:10:12;6.00;;;5.40;;
13208;SDS011;6669;42.678;23.332;2023-06-24T00:12:42;5.78;;;5.22;;
13208;SDS011;6669;42.678;23.332;2023-06-24T00:15:10;6.75;;;5.68;;
13208;SDS011;6669;42.678;23.332;2023-06-24T00:17:38;5.95;;;5.40;;
13208;SDS011;6669;42.678;23.332;2023-06-24T00:20:08;6.68;;;5.97;;
13208;SDS011;6669;42.678;23.332;2023-06-24T00:22:42;6.47;;;5.50;;
13208;SDS011;6669;42.678;23.332;2023-06-24T00:25:11;6.80;;;5.90;;
13208;SDS011;6669;42.678;23.332;2023-06-24T00:27:40;6.38;;;5.70;;
13208;SDS011;6669;42.678;23.332;2023-06-24T00:30:10;6.13;;;5.50;;
13208;SDS011;6669;42.678;23.332;2023-06-24T00:32:38;5.97;;;5.47;;
13208;SDS011;6669;42.678;23.332;2023-06-24T00:35:07;5.80;;;5.15;;
13208;SDS011;6669;42.678;23.332;2023-06-24T00:37:35;5.53;;;5.03;;
13208;SDS011;6669;42.678;23.332;2023-06-24T00:40:05;6.10;;;5.25;;
13208;SDS011;6669;42.678;23.332;2023-06-24T00:42:37;8.05;;;5.97;;
13208;SDS011;6669;42.678;23.332;2023-06-24T00:45:06;6.47;;;5.78;;
13208;SDS011;6669;42.678;23.332;2023-06-24T00:47:36;5.43;;;4.93;;
13208;SDS011;6669;42.678;23.332;2023-06-24T00:50:06;7.00;;;5.35;;
13208;SDS011;6669;42.678;23.332;2023-06-24T00:52:34;8.05;;;5.43;;
13208;SDS011;6669;42.678;23.332;2023-06-24T00:55:07;5.43;;;4.93;;
13208;SDS011;6669;42.678;23.332;2023-06-24T00:57:35;5.85;;;5.30;;
13208;SDS011;6669;42.678;23.332;2023-06-24T01:00:05;7.30;;;5.95;;
13208;SDS011;6669;42.678;23.332;2023-06-24T01:02:36;6.53;;;5.82;;
13208;SDS011;6669;42.678;23.332;2023-06-24T01:05:05;6.22;;;5.63;;
13208;SDS011;6669;42.678;23.332;2023-06-24T01:07:34;6.80;;;5.95;;
13208;SDS011;6669;42.678;23.332;2023-06-24T01:10:05;6.22;;;5.63;;
13208;SDS011;6669;42.678;23.332;2023-06-24T01:12:36;6.40;;;5.68;;
13208;SDS011;6669;42.678;23.332;2023-06-24T01:15:06;7.85;;;5.82;;
13208;SDS011;6669;42.678;23.332;2023-06-24T01:17:36;6.28;;;5.40;;
13208;SDS011;6669;42.678;23.332;2023-06-24T01:20:10;6.25;;;5.60;;
13208;SDS011;6669;42.678;23.332;2023-06-24T01:25:48;7.60;;;5.95;;
13208;SDS011;6669;42.678;23.332;2023-06-24T01:28:48;6.60;;;5.85;;
13208;SDS011;6669;42.678;23.332;2023-06-24T01:31:32;6.18;;;5.57;;
13208;SDS011;6669;42.678;23.332;2023-06-24T01:34:06;8.68;;;6.05;;
13208;SDS011;6669;42.678;23.332;2023-06-24T01:36:40;6.07;;;5.50;;
13208;SDS011;6669;42.678;23.332;2023-06-24T01:39:16;5.72;;;5.13;;
13208;SDS011;6669;42.678;23.332;2023-06-24T01:41:51;7.43;;;6.00;;
13208;SDS011;6669;42.678;23.332;2023-06-24T01:44:28;7.45;;;6.55;;
13208;SDS011;6669;42.678;23.332;2023-06-24T01:46:59;7.70;;;6.70;;
13208;SDS011;6669;42.678;23.332;2023-06-24T01:49:28;7.85;;;6.10;;
13208;SDS011;6669;42.678;23.332;2023-06-24T01:51:57;6.10;;;5.45;;
13208;SDS011;6669;42.678;23.332;2023-06-24T01:54:28;8.57;;;6.25;;
13208;SDS011;6669;42.678;23.332;2023-06-24T01:56:57;6.82;;;6.18;;
13208;SDS011;6669;42.678;23.332;2023-06-24T01:59:29;7.15;;;6.45;;
13208;SDS011;6669;42.678;23.332;2023-06-24T02:02:00;6.95;;;6.03;;
13208;SDS011;6669;42.678;23.332;2023-06-24T02:04:29;7.28;;;6.10;;
13208;SDS011;6669;42.678;23.332;2023-06-24T02:06:59;6.93;;;6.22;;
13208;SDS011;6669;42.678;23.332;2023-06-24T02:09:30;7.15;;;6.43;;
13208;SDS011;6669;42.678;23.332;2023-06-24T02:12:00;8.10;;;6.75;;
13208;SDS011;6669;42.678;23.332;2023-06-24T02:14:30;7.28;;;6.43;;
13208;SDS011;6669;42.678;23.332;2023-06-24T02:17:01;8.32;;;6.85;;
13208;SDS011;6669;42.678;23.332;2023-06-24T02:19:32;8.48;;;7.20;;
13208;SDS011;6669;42.678;23.332;2023-06-24T02:22:01;6.80;;;6.10;;
13208;SDS011;6669;42.678;23.332;2023-06-24T02:24:31;8.00;;;6.47;;
13208;SDS011;6669;42.678;23.332;2023-06-24T02:26:59;7.72;;;6.55;;
13208;SDS011;6669;42.678;23.332;2023-06-24T02:29:27;8.38;;;6.90;;
13208;SDS011;6669;42.678;23.332;2023-06-24T02:31:57;7.60;;;6.80;;
13208;SDS011;6669;42.678;23.332;2023-06-24T02:34:27;8.38;;;6.82;;
13208;SDS011;6669;42.678;23.332;2023-06-24T02:36:56;7.78;;;6.97;;
13208;SDS011;6669;42.678;23.332;2023-06-24T02:39:24;8.55;;;7.50;;
13208;SDS011;6669;42.678;23.332;2023-06-24T02:41:52;8.38;;;7.20;;
13208;SDS011;6669;42.678;23.332;2023-06-24T02:44:20;8.35;;;7.00;;
13208;SDS011;6669;42.678;23.332;2023-06-24T02:46:48;9.38;;;7.78;;
13208;SDS011;6669;42.678;23.332;2023-06-24T02:49:18;8.00;;;6.95;;
13208;SDS011;6669;42.678;23.332;2023-06-24T02:51:49;7.63;;;6.82;;
13208;SDS011;6669;42.678;23.332;2023-06-24T02:54:18;8.43;;;7.47;;
13208;SDS011;6669;42.678;23.332;2023-06-24T02:56:46;8.93;;;7.63;;
13208;SDS011;6669;42.678;23.332;2023-06-24T02:59:15;10.30;;;8.05;;
13208;SDS011;6669;42.678;23.332;2023-06-24T03:01:43;8.75;;;7.85;;
13208;SDS011;6669;42.678;23.332;2023-06-24T03:04:12;10.07;;;8.23;;
13208;SDS011;6669;42.678;23.332;2023-06-24T03:06:41;9.93;;;8.23;;
13208;SDS011;6669;42.678;23.332;2023-06-24T03:09:10;10.20;;;8.50;;
13208;SDS011;6669;42.678;23.332;2023-06-24T03:11:42;10.85;;;9.05;;
13208;SDS011;6669;42.678;23.332;2023-06-24T03:14:10;8.35;;;7.45;;
13208;SDS011;6669;42.678;23.332;2023-06-24T03:16:39;10.70;;;8.23;;
13208;SDS011;6669;42.678;23.332;2023-06-24T03:19:07;8.57;;;7.63;;
13208;SDS011;6669;42.678;23.332;2023-06-24T03:21:35;9.13;;;8.23;;
13208;SDS011;6669;42.678;23.332;2023-06-24T03:24:04;8.80;;;7.05;;
13208;SDS011;6669;42.678;23.332;2023-06-24T03:26:34;9.57;;;7.82;;
13208;SDS011;6669;42.678;23.332;2023-06-24T03:29:02;8.27;;;7.25;;
13208;SDS011;6669;42.678;23.332;2023-06-24T03:31:30;8.70;;;7.80;;
13208;SDS011;6669;42.678;23.332;2023-06-24T03:33:58;10.32;;;8.70;;
13208;SDS011;6669;42.678;23.332;2023-06-24T03:36:26;9.00;;;8.10;;
13208;SDS011;6669;42.678;23.332;2023-06-24T03:38:54;9.25;;;8.20;;
13208;SDS011;6669;42.678;23.332;2023-06-24T03:41:22;8.63;;;7.65;;
13208;SDS011;6669;42.678;23.332;2023-06-24T03:43:53;8.95;;;7.53;;
13208;SDS011;6669;42.678;23.332;2023-06-24T03:46:22;8.85;;;7.70;;
13208;SDS011;6669;42.678;23.332;2023-06-24T03:48:50;10.48;;;8.10;;
13208;SDS011;6669;42.678;23.332;2023-06-24T03:51:18;8.88;;;7.97;;
13208;SDS011;6669;42.678;23.332;2023-06-24T03:53:46;9.45;;;7.80;;
13208;SDS011;6669;42.678;23.332;2023-06-24T03:56:14;9.13;;;8.18;;
13208;SDS011;6669;42.678;23.332;2023-06-24T03:58:42;8.88;;;7.97;;
13208;SDS011;6669;42.678;23.332;2023-06-24T04:01:12;10.70;;;8.68;;
13208;SDS011;6669;42.678;23.332;2023-06-24T04:03:40;9.77;;;8.77;;
13208;SDS011;6669;42.678;23.332;2023-06-24T04:06:08;8.98;;;8.07;;
13208;SDS011;6669;42.678;23.332;2023-06-24T04:08:36;9.27;;;8.27;;
13208;SDS011;6669;42.678;23.332;2023-06-24T04:11:06;9.75;;;7.90;;
13208;SDS011;6669;42.678;23.332;2023-06-24T04:13:35;8.88;;;7.97;;
13208;SDS011;6669;42.678;23.332;2023-06-24T04:16:03;8.70;;;7.82;;
13208;SDS011;6669;42.678;23.332;2023-06-24T04:18:32;12.40;;;9.18;;
13208;SDS011;6669;42.678;23.332;2023-06-24T04:21:03;9.73;;;8.65;;
13208;SDS011;6669;42.678;23.332;2023-06-24T04:23:32;9.48;;;8.48;;
13208;SDS011;6669;42.678;23.332;2023-06-24T04:26:01;9.93;;;8.93;;
13208;SDS011;6669;42.678;23.332;2023-06-24T04:28:29;11.05;;;9.20;;
13208;SDS011;6669;42.678;23.332;2023-06-24T04:30:57;9.63;;;8.35;;
13208;SDS011;6669;42.678;23.332;2023-06-24T04:33:25;9.95;;;8.10;;
13208;SDS011;6669;42.678;23.332;2023-06-24T04:35:55;9.25;;;8.23;;
13208;SDS011;6669;42.678;23.332;2023-06-24T04:38:23;8.85;;;7.95;;
13208;SDS011;6669;42.678;23.332;2023-06-24T04:40:51;11.85;;;8.32;;
13208;SDS011;6669;42.678;23.332;2023-06-24T04:43:19;8.70;;;7.80;;
13208;SDS011;6669;42.678;23.332;2023-06-24T04:45:47;10.85;;;8.40;;
13208;SDS011;6669;42.678;23.332;2023-06-24T04:48:15;10.25;;;8.15;;
13208;SDS011;6669;42.678;23.332;2023-06-24T04:50:43;10.75;;;8.75;;
13208;SDS011;6669;42.678;23.332;2023-06-24T04:53:13;9.40;;;7.80;;
13208;SDS011;6669;42.678;23.332;2023-06-24T04:55:41;9.18;;;8.38;;
13208;SDS011;6669;42.678;23.332;2023-06-24T04:58:09;9.60;;;8.60;;
13208;SDS011;6669;42.678;23.332;2023-06-24T05:00:37;9.63;;;8.48;;
13208;SDS011;6669;42.678;23.332;2023-06-24T05:03:05;8.20;;;7.35;;
13208;SDS011;6669;42.678;23.332;2023-06-24T05:05:33;8.90;;;8.00;;
13208;SDS011;6669;42.678;23.332;2023-06-24T05:08:02;8.90;;;7.97;;
13208;SDS011;6669;42.678;23.332;2023-06-24T05:10:31;10.75;;;8.57;;
13208;SDS011;6669;42.678;23.332;2023-06-24T05:12:59;8.55;;;7.70;;
13208;SDS011;6669;42.678;23.332;2023-06-24T05:15:27;9.70;;;8.63;;
13208;SDS011;6669;42.678;23.332;2023-06-24T05:17:55;9.40;;;8.02;;
13208;SDS011;6669;42.678;23.332;2023-06-24T05:20:23;9.73;;;8.48;;
13208;SDS011;6669;42.678;23.332;2023-06-24T05:22:51;9.52;;;7.55;;
13208;SDS011;6669;42.678;23.332;2023-06-24T05:25:19;8.68;;;7.78;;
13208;SDS011;6669;42.678;23.332;2023-06-24T05:27:50;10.00;;;8.10;;
13208;SDS011;6669;42.678;23.332;2023-06-24T05:30:18;8.75;;;7.85;;
13208;SDS011;6669;42.678;23.332;2023-06-24T05:32:46;11.63;;;7.85;;
13208;SDS011;6669;42.678;23.332;2023-06-24T05:35:14;8.77;;;7.40;;
13208;SDS011;6669;42.678;23.332;2023-06-24T05:37:42;10.05;;;7.93;;
13208;SDS011;6669;42.678;23.332;2023-06-24T05:40:10;8.32;;;7.28;;
13208;SDS011;6669;42.678;23.332;2023-06-24T05:42:39;7.30;;;6.60;;
13208;SDS011;6669;42.678;23.332;2023-06-24T05:45:09;8.63;;;6.88;;
13208;SDS011;6669;42.678;23.332;2023-06-24T05:47:37;7.10;;;6.40;;
13208;SDS011;6669;42.678;23.332;2023-06-24T05:50:06;8.15;;;6.40;;
13208;SDS011;6669;42.678;23.332;2023-06-24T05:52:34;7.05;;;6.18;;
13208;SDS011;6669;42.678;23.332;2023-06-24T05:55:02;7.53;;;6.20;;
13208;SDS011;6669;42.678;23.332;2023-06-24T05:57:31;6.90;;;6.00;;
13208;SDS011;6669;42.678;23.332;2023-06-24T05:59:59;6.90;;;6.22;;
13208;SDS011;6669;42.678;23.332;2023-06-24T06:02:28;7.10;;;6.30;;
13208;SDS011;6669;42.678;23.332;2023-06-24T06:04:56;7.47;;;6.35;;
13208;SDS011;6669;42.678;23.332;2023-06-24T06:07:24;7.47;;;6.53;;
13208;SDS011;6669;42.678;23.332;2023-06-24T06:09:52;7.68;;;6.88;;
13208;SDS011;6669;42.678;23.332;2023-06-24T06:12:20;8.32;;;7.20;;
13208;SDS011;6669;42.678;23.332;2023-06-24T06:14:48;9.27;;;7.35;;
13208;SDS011;6669;42.678;23.332;2023-06-24T06:17:16;7.78;;;7.03;;
13208;SDS011;6669;42.678;23.332;2023-06-24T06:19:46;7.88;;;7.07;;
13208;SDS011;6669;42.678;23.332;2023-06-24T06:22:17;8.38;;;7.57;;
13208;SDS011;6669;42.678;23.332;2023-06-24T06:24:45;8.80;;;7.40;;
13208;SDS011;6669;42.678;23.332;2023-06-24T06:27:13;8.38;;;7.47;;
13208;SDS011;6669;42.678;23.332;2023-06-24T06:29:41;8.80;;;7.55;;
13208;SDS011;6669;42.678;23.332;2023-06-24T06:32:10;9.57;;;7.47;;
13208;SDS011;6669;42.678;23.332;2023-06-24T06:34:38;7.68;;;6.88;;
13208;SDS011;6669;42.678;23.332;2023-06-24T06:37:08;8.10;;;7.30;;
13208;SDS011;6669;42.678;23.332;2023-06-24T06:39:36;8.30;;;7.40;;
13208;SDS011;6669;42.678;23.332;2023-06-24T06:42:04;8.15;;;7.28;;
13208;SDS011;6669;42.678;23.332;2023-06-24T06:44:32;11.88;;;7.07;;
13208;SDS011;6669;42.678;23.332;2023-06-24T06:47:00;7.85;;;7.10;;
13208;SDS011;6669;42.678;23.332;2023-06-24T06:49:28;6.90;;;6.18;;
13208;SDS011;6669;42.678;23.332;2023-06-24T06:51:56;7.70;;;6.38;;
13208;SDS011;6669;42.678;23.332;2023-06-24T06:54:26;7.60;;;6.88;;
13208;SDS011;6669;42.678;23.332;2023-06-24T06:56:54;8.38;;;6.90;;
13208;SDS011;6669;42.678;23.332;2023-06-24T06:59:22;7.60;;;6.60;;
13208;SDS011;6669;42.678;23.332;2023-06-24T07:01:50;8.55;;;7.50;;
13208;SDS011;6669;42.678;23.332;2023-06-24T07:04:18;7.53;;;6.70;;
13208;SDS011;6669;42.678;23.332;2023-06-24T07:06:46;8.25;;;6.72;;
13208;SDS011;6669;42.678;23.332;2023-06-24T07:09:14;7.32;;;6.63;;
13208;SDS011;6669;42.678;23.332;2023-06-24T07:11:44;7.43;;;6.40;;
13208;SDS011;6669;42.678;23.332;2023-06-24T07:14:12;7.97;;;6.90;;
13208;SDS011;6669;42.678;23.332;2023-06-24T07:16:40;7.30;;;6.60;;
13208;SDS011;6669;42.678;23.332;2023-06-24T07:19:08;6.80;;;6.05;;
13208;SDS011;6669;42.678;23.332;2023-06-24T07:21:37;7.45;;;6.65;;
13208;SDS011;6669;42.678;23.332;2023-06-24T07:24:05;7.68;;;6.50;;
13208;SDS011;6669;42.678;23.332;2023-06-24T07:26:33;7.18;;;6.47;;
13208;SDS011;6669;42.678;23.332;2023-06-24T07:29:05;6.88;;;6.18;;
13208;SDS011;6669;42.678;23.332;2023-06-24T07:31:35;7.57;;;6.45;;
13208;SDS011;6669;42.678;23.332;2023-06-24T07:34:04;7.07;;;6.47;;
13208;SDS011;6669;42.678;23.332;2023-06-24T07:36:32;7.07;;;6.38;;
13208;SDS011;6669;42.678;23.332;2023-06-24T07:39:00;7.05;;;6.32;;
13208;SDS011;6669;42.678;23.332;2023-06-24T07:41:28;7.07;;;6.38;;
13208;SDS011;6669;42.678;23.332;2023-06-24T07:43:56;7.05;;;6.45;;
13208;SDS011;6669;42.678;23.332;2023-06-24T07:46:25;7.47;;;6.72;;
13208;SDS011;6669;42.678;23.332;2023-06-24T07:48:54;7.25;;;6.55;;
13208;SDS011;6669;42.678;23.332;2023-06-24T07:51:22;7.88;;;7.18;;
13208;SDS011;6669;42.678;23.332;2023-06-24T07:53:51;7.47;;;6.78;;
13208;SDS011;6669;42.678;23.332;2023-06-24T07:56:19;7.90;;;7.10;;
13208;SDS011;6669;42.678;23.332;2023-06-24T07:58:47;6.68;;;6.15;;
13208;SDS011;6669;42.678;23.332;2023-06-24T08:01:16;6.20;;;5.60;;
13208;SDS011;6669;42.678;23.332;2023-06-24T08:03:45;7.28;;;6.55;;
13208;SDS011;6669;42.678;23.332;2023-06-24T08:06:13;7.22;;;6.53;;
13208;SDS011;6669;42.678;23.332;2023-06-24T08:08:41;7.03;;;6.32;;
13208;SDS011;6669;42.678;23.332;2023-06-24T08:11:12;7.22;;;6.53;;
13208;SDS011;6669;42.678;23.332;2023-06-24T08:13:41;7.43;;;6.78;;
13208;SDS011;6669;42.678;23.332;2023-06-24T08:16:09;9.32;;;6.97;;
13208;SDS011;6669;42.678;23.332;2023-06-24T08:18:37;8.57;;;6.55;;
13208;SDS011;6669;42.678;23.332;2023-06-24T08:21:07;7.20;;;6.50;;
13208;SDS011;6669;42.678;23.332;2023-06-24T08:23:35;6.78;;;6.15;;
13208;SDS011;6669;42.678;23.332;2023-06-24T08:26:03;7.28;;;6.43;;
13208;SDS011;6669;42.678;23.332;2023-06-24T08:28:42;6.95;;;6.25;;
13208;SDS011;6669;42.678;23.332;2023-06-24T08:31:10;7.45;;;6.75;;
13208;SDS011;6669;42.678;23.332;2023-06-24T08:33:38;7.55;;;6.80;;
13208;SDS011;6669;42.678;23.332;2023-06-24T08:36:08;7.65;;;6.90;;
13208;SDS011;6669;42.678;23.332;2023-06-24T08:38:36;6.80;;;6.00;;
13208;SDS011;6669;42.678;23.332;2023-06-24T08:41:04;7.88;;;6.43;;
13208;SDS011;6669;42.678;23.332;2023-06-24T08:43:32;7.05;;;6.35;;
13208;SDS011;6669;42.678;23.332;2023-06-24T08:46:00;7.05;;;6.38;;
13208;SDS011;6669;42.678;23.332;2023-06-24T08:48:28;7.18;;;6.40;;
13208;SDS011;6669;42.678;23.332;2023-06-24T08:50:58;7.20;;;6.50;;
13208;SDS011;6669;42.678;23.332;2023-06-24T08:53:30;6.63;;;6.03;;
13208;SDS011;6669;42.678;23.332;2023-06-24T08:55:58;6.53;;;5.93;;
13208;SDS011;6669;42.678;23.332;2023-06-24T08:58:27;8.38;;;6.03;;
13208;SDS011;6669;42.678;23.332;2023-06-24T09:00:55;6.93;;;6.30;;
13208;SDS011;6669;42.678;23.332;2023-06-24T09:03:23;7.05;;;6.35;;
13208;SDS011;6669;42.678;23.332;2023-06-24T09:05:51;7.22;;;6.53;;
13208;SDS011;6669;42.678;23.332;2023-06-24T09:08:19;6.88;;;5.97;;
13208;SDS011;6669;42.678;23.332;2023-06-24T09:10:53;8.85;;;6.55;;
13208;SDS011;6669;42.678;23.332;2023-06-24T09:13:24;7.35;;;6.30;;
13208;SDS011;6669;42.678;23.332;2023-06-24T09:16:08;6.25;;;5.65;;
13208;SDS011;6669;42.678;23.332;2023-06-24T09:18:39;6.90;;;6.20;;
13208;SDS011;6669;42.678;23.332;2023-06-24T09:21:07;6.80;;;6.20;;
13208;SDS011;6669;42.678;23.332;2023-06-24T09:23:37;6.53;;;5.93;;
13208;SDS011;6669;42.678;23.332;2023-06-24T09:26:10;7.22;;;6.25;;
13208;SDS011;6669;42.678;23.332;2023-06-24T09:28:38;6.85;;;6.15;;
13208;SDS011;6669;42.678;23.332;2023-06-24T09:31:06;6.80;;;6.10;;
13208;SDS011;6669;42.678;23.332;2023-06-24T09:33:45;6.55;;;5.65;;
13208;SDS011;6669;42.678;23.332;2023-06-24T09:36:14;6.45;;;5.68;;
13208;SDS011;6669;42.678;23.332;2023-06-24T09:38:43;6.25;;;5.60;;
13208;SDS011;6669;42.678;23.332;2023-06-24T09:41:13;6.22;;;5.72;;
13208;SDS011;6669;42.678;23.332;2023-06-24T09:43:42;7.57;;;5.53;;
13208;SDS011;6669;42.678;23.332;2023-06-24T09:46:11;6.70;;;5.95;;
13208;SDS011;6669;42.678;23.332;2023-06-24T09:48:40;7.32;;;5.95;;
13208;SDS011;6669;42.678;23.332;2023-06-24T09:51:08;7.10;;;6.40;;
13208;SDS011;6669;42.678;23.332;2023-06-24T09:53:36;6.20;;;5.60;;
13208;SDS011;6669;42.678;23.332;2023-06-24T09:56:05;5.82;;;5.25;;
13208;SDS011;6669;42.678;23.332;2023-06-24T09:58:36;6.05;;;5.45;;
13208;SDS011;6669;42.678;23.332;2023-06-24T10:01:06;6.85;;;6.18;;
13208;SDS011;6669;42.678;23.332;2023-06-24T10:03:34;7.65;;;6.18;;
13208;SDS011;6669;42.678;23.332;2023-06-24T10:06:04;6.03;;;5.35;;
13208;SDS011;6669;42.678;23.332;2023-06-24T10:08:33;5.55;;;5.05;;
13208;SDS011;6669;42.678;23.332;2023-06-24T10:11:01;6.00;;;5.28;;
13208;SDS011;6669;42.678;23.332;2023-06-24T10:13:29;5.78;;;5.28;;
13208;SDS011;6669;42.678;23.332;2023-06-24T10:15:59;5.60;;;5.10;;
13208;SDS011;6669;42.678;23.332;2023-06-24T10:18:34;5.88;;;5.38;;
13208;SDS011;6669;42.678;23.332;2023-06-24T10:21:04;6.53;;;5.85;;
13208;SDS011;6669;42.678;23.332;2023-06-24T10:23:33;5.85;;;5.30;;
13208;SDS011;6669;42.678;23.332;2023-06-24T10:26:07;5.90;;;5.35;;
13208;SDS011;6669;42.678;23.332;2023-06-24T10:31:54;5.00;;;4.57;;
13208;SDS011;6669;42.678;23.332;2023-06-24T10:37:10;5.30;;;4.80;;
13208;SDS011;6669;42.678;23.332;2023-06-24T10:39:44;6.50;;;5.82;;
13208;SDS011;6669;42.678;23.332;2023-06-24T10:42:25;7.13;;;6.43;;
13208;SDS011;6669;42.678;23.332;2023-06-24T10:45:13;5.22;;;4.80;;
13208;SDS011;6669;42.678;23.332;2023-06-24T10:47:45;5.30;;;4.80;;
13208;SDS011;6669;42.678;23.332;2023-06-24T10:50:14;5.20;;;4.70;;
13208;SDS011;6669;42.678;23.332;2023-06-24T10:52:43;5.50;;;4.95;;
13208;SDS011;6669;42.678;23.332;2023-06-24T10:55:13;5.65;;;5.15;;
13208;SDS011;6669;42.678;23.332;2023-06-24T10:57:43;5.50;;;4.97;;
13208;SDS011;6669;42.678;23.332;2023-06-24T11:00:12;5.43;;;4.93;;
13208;SDS011;6669;42.678;23.332;2023-06-24T11:02:41;5.13;;;4.63;;
13208;SDS011;6669;42.678;23.332;2023-06-24T11:05:10;4.50;;;4.10;;
13208;SDS011;6669;42.678;23.332;2023-06-24T11:07:39;5.25;;;4.40;;
13208;SDS011;6669;42.678;23.332;2023-06-24T11:10:09;4.15;;;3.60;;
13208;SDS011;6669;42.678;23.332;2023-06-24T11:12:40;4.85;;;4.45;;
13208;SDS011;6669;42.678;23.332;2023-06-24T11:15:09;5.50;;;4.25;;
13208;SDS011;6669;42.678;23.332;2023-06-24T11:17:38;4.32;;;4.03;;
13208;SDS011;6669;42.678;23.332;2023-06-24T11:20:08;4.93;;;3.75;;
13208;SDS011;6669;42.678;23.332;2023-06-24T11:22:39;3.80;;;3.50;;
13208;SDS011;6669;42.678;23.332;2023-06-24T11:25:13;3.80;;;3.50;;
13208;SDS011;6669;42.678;23.332;2023-06-24T11:27:43;3.70;;;3.40;;
13208;SDS011;6669;42.678;23.332;2023-06-24T11:30:11;4.18;;;3.80;;
13208;SDS011;6669;42.678;23.332;2023-06-24T11:32:40;3.58;;;3.28;;
13208;SDS011;6669;42.678;23.332;2023-06-24T11:35:12;3.88;;;3.58;;
13208;SDS011;6669;42.678;23.332;2023-06-24T11:37:42;4.13;;;3.72;;
13208;SDS011;6669;42.678;23.332;2023-06-24T11:40:12;3.80;;;3.50;;
13208;SDS011;6669;42.678;23.332;2023-06-24T11:42:42;3.50;;;3.20;;
13208;SDS011;6669;42.678;23.332;2023-06-24T11:45:12;4.40;;;4.00;;
13208;SDS011;6669;42.678;23.332;2023-06-24T11:47:42;4.28;;;3.83;;
13208;SDS011;6669;42.678;23.332;2023-06-24T11:50:12;4.35;;;3.95;;
13208;SDS011;6669;42.678;23.332;2023-06-24T11:52:40;3.83;;;3.53;;
13208;SDS011;6669;42.678;23.332;2023-06-24T11:55:16;4.38;;;4.07;;
13208;SDS011;6669;42.678;23.332;2023-06-24T11:57:51;4.20;;;3.80;;
13208;SDS011;6669;42.678;23.332;2023-06-24T12:00:20;4.13;;;3.75;;
13208;SDS011;6669;42.678;23.332;2023-06-24T12:02:53;5.20;;;4.15;;
13208;SDS011;6669;42.678;23.332;2023-06-24T12:05:24;4.40;;;4.00;;
13208;SDS011;6669;42.678;23.332;2023-06-24T12:07:55;4.32;;;3.90;;
13208;SDS011;6669;42.678;23.332;2023-06-24T12:10:28;5.95;;;3.67;;
13208;SDS011;6669;42.678;23.332;2023-06-24T12:12:59;4.50;;;4.10;;
13208;SDS011;6669;42.678;23.332;2023-06-24T12:15:28;4.05;;;3.72;;
13208;SDS011;6669;42.678;23.332;2023-06-24T12:17:56;4.32;;;3.92;;
13208;SDS011;6669;42.678;23.332;2023-06-24T12:20:25;4.30;;;3.90;;
13208;SDS011;6669;42.678;23.332;2023-06-24T12:22:57;4.40;;;3.88;;
13208;SDS011;6669;42.678;23.332;2023-06-24T12:25:25;4.50;;;4.10;;
13208;SDS011;6669;42.678;23.332;2023-06-24T12:27:53;4.82;;;4.05;;
13208;SDS011;6669;42.678;23.332;2023-06-24T12:30:22;4.50;;;4.10;;
13208;SDS011;6669;42.678;23.332;2023-06-24T12:32:50;4.30;;;3.90;;
13208;SDS011;6669;42.678;23.332;2023-06-24T12:35:18;5.10;;;4.55;;
13208;SDS011;6669;42.678;23.332;2023-06-24T12:37:48;4.43;;;4.03;;
13208;SDS011;6669;42.678;23.332;2023-06-24T12:40:16;4.32;;;3.92;;
13208;SDS011;6669;42.678;23.332;2023-06-24T12:42:44;4.80;;;4.18;;
13208;SDS011;6669;42.678;23.332;2023-06-24T12:45:12;4.50;;;4.10;;
13208;SDS011;6669;42.678;23.332;2023-06-24T12:47:40;4.57;;;4.18;;
13208;SDS011;6669;42.678;23.332;2023-06-24T12:50:08;5.15;;;4.65;;
13208;SDS011;6669;42.678;23.332;2023-06-24T12:52:37;4.85;;;4.45;;
13208;SDS011;6669;42.678;23.332;2023-06-24T12:55:07;4.95;;;4.45;;
13208;SDS011;6669;42.678;23.332;2023-06-24T12:57:39;5.25;;;4.63;;
13208;SDS011;6669;42.678;23.332;2023-06-24T13:00:07;5.30;;;4.80;;
13208;SDS011;6669;42.678;23.332;2023-06-24T13:02:37;5.13;;;4.68;;
13208;SDS011;6669;42.678;23.332;2023-06-24T13:05:06;5.88;;;4.82;;
13208;SDS011;6669;42.678;23.332;2023-06-24T13:07:34;5.70;;;4.60;;
13208;SDS011;6669;42.678;23.332;2023-06-24T13:10:03;5.53;;;5.03;;
13208;SDS011;6669;42.678;23.332;2023-06-24T13:12:34;5.35;;;4.85;;
13208;SDS011;6669;42.678;23.332;2023-06-24T13:15:02;5.03;;;4.53;;
13208;SDS011;6669;42.678;23.332;2023-06-24T13:17:31;4.57;;;4.20;;
13208;SDS011;6669;42.678;23.332;2023-06-24T13:19:59;5.18;;;4.30;;
13208;SDS011;6669;42.678;23.332;2023-06-24T13:22:28;4.43;;;4.03;;
13208;SDS011;6669;42.678;23.332;2023-06-24T13:24:56;4.22;;;3.83;;
13208;SDS011;6669;42.678;23.332;2023-06-24T13:27:24;5.30;;;4.78;;
13208;SDS011;6669;42.678;23.332;2023-06-24T13:29:54;5.55;;;4.70;;
13208;SDS011;6669;42.678;23.332;2023-06-24T13:32:22;7.63;;;4.85;;
13208;SDS011;6669;42.678;23.332;2023-06-24T13:34:50;6.18;;;4.88;;
13208;SDS011;6669;42.678;23.332;2023-06-24T13:37:18;5.55;;;4.20;;
13208;SDS011;6669;42.678;23.332;2023-06-24T13:39:46;4.93;;;3.67;;
13208;SDS011;6669;42.678;23.332;2023-06-24T13:42:14;7.18;;;3.47;;
13208;SDS011;6669;42.678;23.332;2023-06-24T13:44:42;6.60;;;4.28;;
13208;SDS011;6669;42.678;23.332;2023-06-24T13:47:12;6.80;;;4.03;;
13208;SDS011;6669;42.678;23.332;2023-06-24T13:49:40;5.82;;;4.40;;
13208;SDS011;6669;42.678;23.332;2023-06-24T13:52:08;5.45;;;3.90;;
13208;SDS011;6669;42.678;23.332;2023-06-24T13:54:36;4.93;;;3.45;;
13208;SDS011;6669;42.678;23.332;2023-06-24T13:57:04;5.10;;;3.50;;
13208;SDS011;6669;42.678;23.332;2023-06-24T13:59:32;6.10;;;3.58;;
13208;SDS011;6669;42.678;23.332;2023-06-24T14:02:00;3.72;;;3.33;;
13208;SDS011;6669;42.678;23.332;2023-06-24T14:04:30;3.45;;;3.13;;
13208;SDS011;6669;42.678;23.332;2023-06-24T14:06:58;6.55;;;3.95;;
13208;SDS011;6669;42.678;23.332;2023-06-24T14:09:26;14.55;;;5.43;;
13208;SDS011;6669;42.678;23.332;2023-06-24T14:11:54;7.75;;;3.88;;
13208;SDS011;6669;42.678;23.332;2023-06-24T14:14:22;5.05;;;3.20;;
13208;SDS011;6669;42.678;23.332;2023-06-24T14:16:50;4.93;;;3.35;;
13208;SDS011;6669;42.678;23.332;2023-06-24T14:19:18;7.00;;;3.67;;
13208;SDS011;6669;42.678;23.332;2023-06-24T14:21:51;4.93;;;3.53;;
13208;SDS011;6669;42.678;23.332;2023-06-24T14:24:19;5.43;;;3.33;;
13208;SDS011;6669;42.678;23.332;2023-06-24T14:26:47;4.35;;;3.30;;
13208;SDS011;6669;42.678;23.332;2023-06-24T14:29:16;4.80;;;3.13;;
13208;SDS011;6669;42.678;23.332;2023-06-24T14:31:44;6.00;;;3.20;;
13208;SDS011;6669;42.678;23.332;2023-06-24T14:34:12;4.18;;;3.40;;
13208;SDS011;6669;42.678;23.332;2023-06-24T14:36:40;3.83;;;3.15;;
13208;SDS011;6669;42.678;23.332;2023-06-24T14:39:12;3.88;;;3.03;;
13208;SDS011;6669;42.678;23.332;2023-06-24T14:41:41;4.70;;;3.30;;
13208;SDS011;6669;42.678;23.332;2023-06-24T14:44:09;6.70;;;4.35;;
13208;SDS011;6669;42.678;23.332;2023-06-24T14:46:38;6.85;;;3.58;;
13208;SDS011;6669;42.678;23.332;2023-06-24T14:49:06;5.00;;;3.80;;
13208;SDS011;6669;42.678;23.332;2023-06-24T14:51:34;6.88;;;4.10;;
13208;SDS011;6669;42.678;23.332;2023-06-24T14:54:02;5.57;;;4.00;;
13208;SDS011;6669;42.678;23.332;2023-06-24T14:56:32;6.75;;;4.45;;
13208;SDS011;6669;42.678;23.332;2023-06-24T14:59:00;4.82;;;3.55;;
13208;SDS011;6669;42.678;23.332;2023-06-24T15:01:28;4.72;;;3.92;;
13208;SDS011;6669;42.678;23.332;2023-06-24T15:03:56;4.68;;;4.10;;
13208;SDS011;6669;42.678;23.332;2023-06-24T15:06:24;5.70;;;3.80;;
13208;SDS011;6669;42.678;23.332;2023-06-24T15:08:52;4.38;;;3.78;;